WET,Max TemperatureF,Mean TemperatureF,Min TemperatureF,Max Dew PointF,MeanDew PointF,Min DewpointF,Max Humidity, Mean Humidity, Min Humidity, Max Sea Level PressureIn, Mean Sea Level PressureIn, Min Sea Level PressureIn, Max VisibilityMiles, Mean VisibilityMiles, Min VisibilityMiles, Max Wind SpeedMPH, Mean Wind SpeedMPH, Max Gust SpeedMPH,PrecipitationIn, CloudCover, Events, WindDirDegrees
2012-12-1,58,48,38,23,19,14,49,27,4,29.92,29.75,29.68,12,8,6,22,9,39,0.00,2,,76
2012-12-2,56,44,33,27,23,21,70,39,16,30.24,30.13,30.04,12,8,6,5,4,,0.00,2,,222
2012-12-3,55,44,32,27,24,19,70,41,17,30.42,30.36,30.33,12,12,12,5,2,,0.00,,,236
2012-12-4,62,46,30,22,16,9,60,27,6,30.39,30.32,30.27,16,12,9,14,5,,0.00,,,245
2012-12-5,64,48,32,19,14,3,56,24,4,30.27,30.21,30.15,12,12,12,9,4,,0.00,,,251
2012-12-6,66,52,39,27,18,10,53,25,5,30.27,30.21,30.15,12,11,9,8,4,,0.00,,,237
2012-12-7,54,48,41,27,20,17,46,28,13,30.18,30.14,30.12,12,8,6,5,2,,0.00,6,,101
2012-12-8,66,52,37,32,28,23,70,37,12,30.21,30.16,30.12,16,12,9,7,4,,0.00,,,244
2012-12-9,62,50,39,41,37,33,81,52,28,30.33,30.27,30.21,12,10,6,8,4,,0.00,3,,271
2012-12-10,62,50,37,36,32,29,75,44,20,30.27,30.20,30.12,12,11,9,5,3,,0.00,,,292
2012-12-11,65,51,37,33,30,27,65,40,16,30.15,30.10,30.06,12,11,9,7,2,,0.00,,,207
2012-12-12,63,51,39,34,30,28,65,39,16,30.09,30.03,29.98,12,11,9,9,4,,0.00,,,206
2012-12-13,63,50,36,32,29,27,65,39,18,30.09,30.03,30.01,12,11,9,6,2,,0.00,,,238
2012-12-14,62,50,37,34,30,27,65,40,16,30.27,30.20,30.15,12,11,9,5,3,,0.00,,,276
2012-12-15,69,53,37,31,28,24,61,33,10,30.39,30.33,30.30,12,11,9,7,2,,0.00,,,243
2012-12-16,72,56,40,28,25,21,46,24,8,30.42,30.37,30.33,12,12,9,7,4,,0.00,,,148
2012-12-17,73,56,40,34,26,21,53,27,8,30.36,30.31,30.27,12,12,12,5,2,,0.00,,,264
2012-12-18,70,55,40,29,25,21,53,27,9,30.33,30.29,30.24,12,12,12,28,5,,0.00,,,235
2012-12-19,72,56,40,27,24,20,57,26,7,30.33,30.27,30.21,12,11,9,9,2,,0.00,,,240
2012-12-20,74,56,39,27,24,18,53,24,6,30.30,30.26,30.24,12,12,12,6,2,,0.00,,,192
2012-12-21,75,58,41,28,21,14,57,24,5,30.36,30.30,30.24,12,12,12,2,1,,0.00,,,267
2012-12-22,76,58,41,32,20,12,46,20,4,30.39,30.33,30.30,12,12,9,9,3,,0.00,,,278
2012-12-23,74,58,42,22,19,16,37,19,6,30.45,30.38,30.33,12,11,9,8,2,,0.00,,,236
2012-12-24,70,56,41,30,28,26,57,30,11,30.36,30.27,30.18,12,12,12,9,4,,0.00,,,212
2012-12-25,65,54,42,34,33,30,66,40,20,30.18,30.14,30.09,12,8,6,6,3,,0.00,2,,248
2012-12-26,61,50,39,36,33,30,66,44,23,30.33,30.25,30.21,12,9,6,6,2,,0.00,2,,165
2012-12-27,59,48,37,36,31,28,70,45,22,30.45,30.39,30.36,12,10,6,12,5,,0.00,1,,228
2012-12-28,64,48,33,30,14,-9,81,28,4,30.51,30.45,30.42,12,11,9,7,4,,0.00,,,168
2012-12-29,66,50,33,19,2,-18,36,16,4,30.45,30.40,30.33,12,12,12,7,3,,0.00,,,243
2012-12-30,61,48,34,16,9,1,27,18,7,30.48,30.41,30.36,12,12,12,5,2,,0.00,,,258
2012-12-31,60,46,33,34,24,16,60,37,11,30.39,30.31,30.24,12,11,9,9,4,,0.00,,,250